createdAt,value
2022-11-05T00:06:54.704Z,7.9
2022-11-05T00:16:54.784Z,7.7
2022-11-05T00:26:55.234Z,7.5
2022-11-05T00:36:55.533Z,7.3
2022-11-05T00:46:59.702Z,7.2
2022-11-05T00:56:59.390Z,7.2
2022-11-05T01:06:57.265Z,7.2
2022-11-05T01:16:58.168Z,7.1
2022-11-05T01:26:58.602Z,7
2022-11-05T01:36:59.161Z,6.9
2022-11-05T01:46:59.510Z,6.9
2022-11-05T01:56:59.832Z,6.9
2022-11-05T02:06:59.970Z,6.8
2022-11-05T02:17:01.533Z,6.7
2022-11-05T02:27:01.255Z,6.7
2022-11-05T02:37:02.257Z,6.6
2022-11-05T02:57:03.235Z,6.6
2022-11-05T03:07:03.298Z,6.5
2022-11-05T03:17:03.797Z,6.5
2022-11-05T03:27:04.699Z,6.4
2022-11-05T03:37:05.381Z,6.4
2022-11-05T03:47:06.346Z,6.3
2022-11-05T04:07:07.708Z,6
2022-11-05T04:17:08.298Z,6
2022-11-05T04:27:08.717Z,6.1
2022-11-05T04:37:08.871Z,5.9
2022-11-05T04:47:08.978Z,6
2022-11-05T04:57:09.465Z,6
2022-11-05T05:07:10.452Z,5.8
2022-11-05T05:17:10.568Z,5.8
2022-11-05T05:27:10.652Z,5.7
2022-11-05T05:37:10.849Z,5.6
2022-11-05T05:47:11.285Z,5.6
2022-11-05T05:57:12.081Z,5.8
2022-11-05T06:07:12.329Z,5.8
2022-11-05T06:17:13.349Z,5.7
2022-11-05T06:27:14.264Z,5.6
2022-11-05T06:37:14.402Z,5.6
2022-11-05T06:47:15.176Z,5.5
2022-11-05T06:57:15.903Z,5.5
2022-11-05T07:07:16.329Z,5.7
2022-11-05T07:17:16.722Z,5.6
2022-11-05T07:27:16.989Z,5.9
2022-11-05T07:37:17.217Z,6.2
2022-11-05T07:47:17.932Z,6.5
2022-11-05T07:57:18.571Z,6.7
2022-11-05T08:07:19.581Z,7
2022-11-05T08:17:20.393Z,7.3
2022-11-05T08:27:21.248Z,7.5
2022-11-05T08:37:21.805Z,7.8
2022-11-05T09:07:23.691Z,8.5
2022-11-05T09:27:24.899Z,8.9
2022-11-05T09:47:26.765Z,9.4
2022-11-05T09:57:27.755Z,9.6
2022-11-05T10:07:28.198Z,9.9
2022-11-05T10:17:28.920Z,10
2022-11-05T10:27:29.577Z,10.2
2022-11-05T10:37:30.517Z,10.4
2022-11-05T10:47:30.766Z,10.6
2022-11-05T10:57:31.488Z,10.9
2022-11-05T11:07:32.023Z,10.9
2022-11-05T11:17:32.492Z,10.9
2022-11-05T11:27:32.888Z,10.8
2022-11-05T11:37:33.584Z,10.9
2022-11-05T11:47:34.621Z,11.1
2022-11-05T11:57:35.428Z,11.3
2022-11-05T12:07:36.063Z,11.7
2022-11-05T12:17:36.129Z,11.5
2022-11-05T12:27:36.175Z,11.7
2022-11-05T12:37:36.669Z,11.5
2022-11-05T12:47:37.387Z,11.4
2022-11-05T12:57:38.255Z,11.2
2022-11-05T13:07:38.783Z,11.3
2022-11-05T13:17:39.337Z,11.3
2022-11-05T13:27:39.945Z,11.2
2022-11-05T13:37:40.868Z,11.3
2022-11-05T13:47:41.490Z,11.2
2022-11-05T13:57:42.280Z,11.3
2022-11-05T14:07:42.365Z,11.3
2022-11-05T14:17:43.040Z,11.1
2022-11-05T14:27:43.202Z,11
2022-11-05T14:37:43.585Z,10.9
2022-11-05T14:47:43.781Z,10.8
2022-11-05T14:57:44.546Z,10.8
2022-11-05T15:07:45.121Z,10.8
2022-11-05T15:17:45.699Z,10.7
2022-11-05T15:27:46.381Z,10.7
2022-11-05T15:37:51.709Z,10.6
2022-11-05T15:47:46.820Z,10.6
2022-11-05T15:57:50.597Z,10.5
2022-11-05T16:07:48.665Z,10.4
2022-11-05T16:17:48.629Z,10.3
2022-11-05T16:27:49.643Z,10.2
2022-11-05T16:37:52.173Z,10.1
2022-11-05T16:47:51.363Z,10.1
2022-11-05T16:57:52.387Z,10
2022-11-05T17:07:53.367Z,10.1
2022-11-05T17:17:53.578Z,10.1
2022-11-05T17:37:53.681Z,10.1
2022-11-05T17:47:53.995Z,10.1
2022-11-05T17:57:54.848Z,10
2022-11-05T18:07:55.433Z,10.1
2022-11-05T18:17:55.696Z,10.1
2022-11-05T18:27:55.778Z,10.2
2022-11-05T18:37:56.146Z,10.2
2022-11-05T18:47:56.792Z,10.2
2022-11-05T18:57:57.025Z,10.1
2022-11-05T19:07:57.630Z,10.2
2022-11-05T19:17:57.920Z,10.1
2022-11-05T19:27:58.531Z,10.1
2022-11-05T19:37:59.530Z,10.1
2022-11-05T19:48:00.548Z,10
2022-11-05T19:58:01.225Z,10
2022-11-05T20:08:01.874Z,10
2022-11-05T20:18:02.245Z,9.9
2022-11-05T20:28:02.751Z,9.9
2022-11-05T20:38:03.588Z,9.9
2022-11-05T20:48:04.048Z,9.9
2022-11-05T20:58:04.438Z,9.8
2022-11-05T21:08:05.418Z,9.8
2022-11-05T21:18:06.073Z,9.8
2022-11-05T21:28:06.192Z,9.8
2022-11-05T21:38:06.219Z,9.7
2022-11-05T21:48:06.624Z,9.6
2022-11-05T21:58:06.986Z,9.5
2022-11-05T22:08:07.877Z,9.5
2022-11-05T22:18:08.331Z,9.4
2022-11-05T22:28:08.800Z,9.3
2022-11-05T22:38:09.610Z,9.3
2022-11-05T22:38:31.272Z,9.3
2022-11-05T22:48:15.236Z,9.2
2022-11-05T22:58:15.749Z,9
2022-11-05T23:08:16.175Z,8.8
2022-11-05T23:18:16.136Z,8.7
2022-11-05T23:28:17.059Z,8.7
2022-11-05T23:38:17.696Z,8.8
2022-11-05T23:48:18.375Z,8.9
2022-11-05T23:58:19.318Z,8.9
